sensor_id;sensor_type;location;lat;lon;timestamp;temperature;humidity
39347;DHT22;26262;49.836;6.632;2023-11-19T00:01:31;10.10;99.90
39347;DHT22;26262;49.836;6.632;2023-11-19T00:03:57;10.10;99.90
39347;DHT22;26262;49.836;6.632;2023-11-19T00:06:23;10.20;99.90
39347;DHT22;26262;49.836;6.632;2023-11-19T00:08:49;10.20;99.90
39347;DHT22;26262;49.836;6.632;2023-11-19T00:11:15;10.20;99.90
39347;DHT22;26262;49.836;6.632;2023-11-19T00:13:41;10.20;99.90
39347;DHT22;26262;49.836;6.632;2023-11-19T00:16:06;10.20;99.90
39347;DHT22;26262;49.836;6.632;2023-11-19T00:18:32;10.20;99.90
39347;DHT22;26262;49.836;6.632;2023-11-19T00:20:58;10.20;99.90
39347;DHT22;26262;49.836;6.632;2023-11-19T00:23:23;10.30;99.90
39347;DHT22;26262;49.836;6.632;2023-11-19T00:25:49;10.20;99.90
39347;DHT22;26262;49.836;6.632;2023-11-19T00:28:14;10.30;99.90
39347;DHT22;26262;49.836;6.632;2023-11-19T00:30:40;10.10;99.90
39347;DHT22;26262;49.836;6.632;2023-11-19T00:33:08;10.10;99.90
39347;DHT22;26262;49.836;6.632;2023-11-19T00:35:33;10.10;99.90
39347;DHT22;26262;49.836;6.632;2023-11-19T00:37:59;9.90;99.90
39347;DHT22;26262;49.836;6.632;2023-11-19T00:40:25;9.90;99.90
39347;DHT22;26262;49.836;6.632;2023-11-19T00:42:51;10.00;99.90
39347;DHT22;26262;49.836;6.632;2023-11-19T00:45:16;9.90;99.90
39347;DHT22;26262;49.836;6.632;2023-11-19T00:47:41;9.90;99.90
39347;DHT22;26262;49.836;6.632;2023-11-19T00:50:07;9.90;99.90
39347;DHT22;26262;49.836;6.632;2023-11-19T00:52:36;10.00;99.90
39347;DHT22;26262;49.836;6.632;2023-11-19T00:55:03;10.00;99.90
39347;DHT22;26262;49.836;6.632;2023-11-19T00:57:28;10.00;99.90
39347;DHT22;26262;49.836;6.632;2023-11-19T00:59:54;10.10;99.90
39347;DHT22;26262;49.836;6.632;2023-11-19T01:02:19;10.00;99.90
39347;DHT22;26262;49.836;6.632;2023-11-19T01:04:44;10.00;99.90
39347;DHT22;26262;49.836;6.632;2023-11-19T01:07:10;10.00;99.90
39347;DHT22;26262;49.836;6.632;2023-11-19T01:09:38;10.00;99.90
39347;DHT22;26262;49.836;6.632;2023-11-19T01:12:04;9.90;99.90
39347;DHT22;26262;49.836;6.632;2023-11-19T01:14:30;9.90;99.90
39347;DHT22;26262;49.836;6.632;2023-11-19T01:16:55;9.90;99.90
39347;DHT22;26262;49.836;6.632;2023-11-19T01:19:21;10.00;99.90
39347;DHT22;26262;49.836;6.632;2023-11-19T01:21:48;10.00;99.90
39347;DHT22;26262;49.836;6.632;2023-11-19T01:24:13;10.20;99.90
39347;DHT22;26262;49.836;6.632;2023-11-19T01:26:39;10.20;99.90
39347;DHT22;26262;49.836;6.632;2023-11-19T01:29:13;10.10;99.90
39347;DHT22;26262;49.836;6.632;2023-11-19T01:31:42;10.00;99.90
39347;DHT22;26262;49.836;6.632;2023-11-19T01:34:07;10.00;99.90
39347;DHT22;26262;49.836;6.632;2023-11-19T01:36:33;10.10;99.90
39347;DHT22;26262;49.836;6.632;2023-11-19T01:38:58;10.20;99.90
39347;DHT22;26262;49.836;6.632;2023-11-19T01:41:24;10.20;99.90
39347;DHT22;26262;49.836;6.632;2023-11-19T01:43:50;10.20;99.90
39347;DHT22;26262;49.836;6.632;2023-11-19T01:46:15;10.30;99.90
39347;DHT22;26262;49.836;6.632;2023-11-19T01:48:44;10.30;99.90
39347;DHT22;26262;49.836;6.632;2023-11-19T01:51:10;10.30;99.90
39347;DHT22;26262;49.836;6.632;2023-11-19T01:53:36;10.10;99.90
39347;DHT22;26262;49.836;6.632;2023-11-19T01:56:03;10.00;99.90
39347;DHT22;26262;49.836;6.632;2023-11-19T01:58:29;10.00;99.90
39347;DHT22;26262;49.836;6.632;2023-11-19T02:00:55;10.10;99.90
39347;DHT22;26262;49.836;6.632;2023-11-19T02:03:21;10.00;99.90
39347;DHT22;26262;49.836;6.632;2023-11-19T02:05:47;10.10;99.90
39347;DHT22;26262;49.836;6.632;2023-11-19T02:08:14;10.10;99.90
39347;DHT22;26262;49.836;6.632;2023-11-19T02:10:39;10.10;99.90
39347;DHT22;26262;49.836;6.632;2023-11-19T02:13:05;10.10;99.90
39347;DHT22;26262;49.836;6.632;2023-11-19T02:15:32;10.30;99.90
39347;DHT22;26262;49.836;6.632;2023-11-19T02:17:57;10.20;99.90
39347;DHT22;26262;49.836;6.632;2023-11-19T02:20:24;10.30;99.90
39347;DHT22;26262;49.836;6.632;2023-11-19T02:22:51;10.40;99.90
39347;DHT22;26262;49.836;6.632;2023-11-19T02:25:20;10.40;99.90
39347;DHT22;26262;49.836;6.632;2023-11-19T02:30:14;10.40;99.90
39347;DHT22;26262;49.836;6.632;2023-11-19T02:32:42;10.50;99.90
39347;DHT22;26262;49.836;6.632;2023-11-19T02:35:08;10.50;99.90
39347;DHT22;26262;49.836;6.632;2023-11-19T02:37:34;10.40;99.90
39347;DHT22;26262;49.836;6.632;2023-11-19T02:39:59;10.30;99.90
39347;DHT22;26262;49.836;6.632;2023-11-19T02:42:34;10.30;99.90
39347;DHT22;26262;49.836;6.632;2023-11-19T02:45:01;10.30;99.90
39347;DHT22;26262;49.836;6.632;2023-11-19T02:47:27;10.30;99.90
39347;DHT22;26262;49.836;6.632;2023-11-19T02:49:55;10.40;99.90
39347;DHT22;26262;49.836;6.632;2023-11-19T02:52:21;10.40;99.90
39347;DHT22;26262;49.836;6.632;2023-11-19T02:54:46;10.40;99.90
39347;DHT22;26262;49.836;6.632;2023-11-19T02:57:11;10.30;99.90
39347;DHT22;26262;49.836;6.632;2023-11-19T02:59:38;10.40;99.90
39347;DHT22;26262;49.836;6.632;2023-11-19T03:02:05;10.50;99.90
39347;DHT22;26262;49.836;6.632;2023-11-19T03:04:32;10.60;99.90
39347;DHT22;26262;49.836;6.632;2023-11-19T03:06:58;10.60;99.90
39347;DHT22;26262;49.836;6.632;2023-11-19T03:09:23;10.60;99.90
39347;DHT22;26262;49.836;6.632;2023-11-19T03:11:49;10.60;99.90
39347;DHT22;26262;49.836;6.632;2023-11-19T03:14:15;10.50;99.90
39347;DHT22;26262;49.836;6.632;2023-11-19T03:16:40;10.50;99.90
39347;DHT22;26262;49.836;6.632;2023-11-19T03:19:06;10.50;99.90
39347;DHT22;26262;49.836;6.632;2023-11-19T03:21:31;10.40;99.90
39347;DHT22;26262;49.836;6.632;2023-11-19T03:23:57;10.50;99.90
39347;DHT22;26262;49.836;6.632;2023-11-19T03:26:26;10.40;99.90
39347;DHT22;26262;49.836;6.632;2023-11-19T03:28:52;10.50;99.90
39347;DHT22;26262;49.836;6.632;2023-11-19T03:31:17;10.50;99.90
39347;DHT22;26262;49.836;6.632;2023-11-19T03:33:43;10.50;99.90
39347;DHT22;26262;49.836;6.632;2023-11-19T03:36:08;10.50;99.90
39347;DHT22;26262;49.836;6.632;2023-11-19T03:38:34;10.50;99.90
39347;DHT22;26262;49.836;6.632;2023-11-19T03:40:59;10.60;99.90
39347;DHT22;26262;49.836;6.632;2023-11-19T03:43:25;10.60;99.90
39347;DHT22;26262;49.836;6.632;2023-11-19T03:45:50;10.60;99.90
39347;DHT22;26262;49.836;6.632;2023-11-19T03:48:16;10.60;99.90
39347;DHT22;26262;49.836;6.632;2023-11-19T03:50:42;10.60;99.90
39347;DHT22;26262;49.836;6.632;2023-11-19T03:53:07;10.50;99.90
39347;DHT22;26262;49.836;6.632;2023-11-19T03:55:33;10.50;99.90
39347;DHT22;26262;49.836;6.632;2023-11-19T03:57:58;10.50;99.90
39347;DHT22;26262;49.836;6.632;2023-11-19T04:00:23;10.60;99.90
39347;DHT22;26262;49.836;6.632;2023-11-19T04:02:49;10.60;99.90
39347;DHT22;26262;49.836;6.632;2023-11-19T04:05:14;10.60;99.90
39347;DHT22;26262;49.836;6.632;2023-11-19T04:07:40;10.60;99.90
39347;DHT22;26262;49.836;6.632;2023-11-19T04:10:05;10.60;99.90
39347;DHT22;26262;49.836;6.632;2023-11-19T04:12:31;10.60;99.90
39347;DHT22;26262;49.836;6.632;2023-11-19T04:14:56;10.70;99.90
39347;DHT22;26262;49.836;6.632;2023-11-19T04:17:22;10.70;99.90
39347;DHT22;26262;49.836;6.632;2023-11-19T04:19:48;10.70;99.90
39347;DHT22;26262;49.836;6.632;2023-11-19T04:22:14;10.80;99.90
39347;DHT22;26262;49.836;6.632;2023-11-19T04:24:39;10.80;99.90
39347;DHT22;26262;49.836;6.632;2023-11-19T04:27:05;10.90;99.90
39347;DHT22;26262;49.836;6.632;2023-11-19T04:29:31;10.80;99.90
39347;DHT22;26262;49.836;6.632;2023-11-19T04:31:57;10.80;99.90
39347;DHT22;26262;49.836;6.632;2023-11-19T04:34:22;10.90;99.90
39347;DHT22;26262;49.836;6.632;2023-11-19T04:36:48;11.00;99.90
39347;DHT22;26262;49.836;6.632;2023-11-19T04:39:14;11.00;99.90
39347;DHT22;26262;49.836;6.632;2023-11-19T04:41:50;11.00;99.90
39347;DHT22;26262;49.836;6.632;2023-11-19T04:44:17;10.90;99.90
39347;DHT22;26262;49.836;6.632;2023-11-19T04:46:43;10.90;99.90
39347;DHT22;26262;49.836;6.632;2023-11-19T04:49:09;11.00;99.90
39347;DHT22;26262;49.836;6.632;2023-11-19T04:51:42;10.90;99.90
39347;DHT22;26262;49.836;6.632;2023-11-19T04:54:08;11.00;99.90
39347;DHT22;26262;49.836;6.632;2023-11-19T04:56:34;10.90;99.90
39347;DHT22;26262;49.836;6.632;2023-11-19T04:58:59;11.00;99.90
39347;DHT22;26262;49.836;6.632;2023-11-19T05:01:25;11.00;99.90
39347;DHT22;26262;49.836;6.632;2023-11-19T05:03:50;11.10;99.90
39347;DHT22;26262;49.836;6.632;2023-11-19T05:06:16;11.10;99.90
39347;DHT22;26262;49.836;6.632;2023-11-19T05:08:41;11.10;99.90
39347;DHT22;26262;49.836;6.632;2023-11-19T05:11:07;11.00;99.90
39347;DHT22;26262;49.836;6.632;2023-11-19T05:13:32;11.10;99.90
39347;DHT22;26262;49.836;6.632;2023-11-19T05:15:59;11.00;99.90
39347;DHT22;26262;49.836;6.632;2023-11-19T05:18:24;11.10;99.90
39347;DHT22;26262;49.836;6.632;2023-11-19T05:20:49;11.00;99.90
39347;DHT22;26262;49.836;6.632;2023-11-19T05:23:15;11.00;99.90
39347;DHT22;26262;49.836;6.632;2023-11-19T05:25:40;11.00;99.90
39347;DHT22;26262;49.836;6.632;2023-11-19T05:28:06;10.80;99.90
39347;DHT22;26262;49.836;6.632;2023-11-19T05:30:31;10.90;99.90
39347;DHT22;26262;49.836;6.632;2023-11-19T05:32:56;11.00;99.90
39347;DHT22;26262;49.836;6.632;2023-11-19T05:35:22;10.80;99.90
39347;DHT22;26262;49.836;6.632;2023-11-19T05:37:47;10.80;99.90
39347;DHT22;26262;49.836;6.632;2023-11-19T05:40:15;10.80;99.90
39347;DHT22;26262;49.836;6.632;2023-11-19T05:42:40;10.70;99.90
39347;DHT22;26262;49.836;6.632;2023-11-19T05:45:06;10.80;99.90
39347;DHT22;26262;49.836;6.632;2023-11-19T05:47:33;10.80;99.90
39347;DHT22;26262;49.836;6.632;2023-11-19T05:49:58;10.90;99.90
39347;DHT22;26262;49.836;6.632;2023-11-19T05:52:24;10.80;99.90
39347;DHT22;26262;49.836;6.632;2023-11-19T05:54:49;10.90;99.90
39347;DHT22;26262;49.836;6.632;2023-11-19T05:57:17;10.80;99.90
39347;DHT22;26262;49.836;6.632;2023-11-19T05:59:48;11.00;99.90
39347;DHT22;26262;49.836;6.632;2023-11-19T06:02:13;10.70;99.90
39347;DHT22;26262;49.836;6.632;2023-11-19T06:04:39;10.80;99.90
39347;DHT22;26262;49.836;6.632;2023-11-19T06:07:04;10.90;99.90
39347;DHT22;26262;49.836;6.632;2023-11-19T06:09:30;10.80;99.90
39347;DHT22;26262;49.836;6.632;2023-11-19T06:11:59;10.90;99.90
39347;DHT22;26262;49.836;6.632;2023-11-19T06:14:27;10.60;99.90
39347;DHT22;26262;49.836;6.632;2023-11-19T06:16:52;10.60;99.90
39347;DHT22;26262;49.836;6.632;2023-11-19T06:19:17;10.50;99.90
39347;DHT22;26262;49.836;6.632;2023-11-19T06:21:43;10.40;99.90
39347;DHT22;26262;49.836;6.632;2023-11-19T06:24:08;10.30;99.90
39347;DHT22;26262;49.836;6.632;2023-11-19T06:26:34;10.30;99.90
39347;DHT22;26262;49.836;6.632;2023-11-19T06:28:59;10.40;99.90
39347;DHT22;26262;49.836;6.632;2023-11-19T06:31:25;10.20;99.90
39347;DHT22;26262;49.836;6.632;2023-11-19T06:33:50;10.30;99.90
39347;DHT22;26262;49.836;6.632;2023-11-19T06:36:16;10.20;99.90
39347;DHT22;26262;49.836;6.632;2023-11-19T06:38:42;10.20;99.90
39347;DHT22;26262;49.836;6.632;2023-11-19T06:41:08;10.30;99.90
39347;DHT22;26262;49.836;6.632;2023-11-19T06:43:34;10.30;99.90
39347;DHT22;26262;49.836;6.632;2023-11-19T06:46:00;10.30;99.90
39347;DHT22;26262;49.836;6.632;2023-11-19T06:48:25;10.20;99.90
39347;DHT22;26262;49.836;6.632;2023-11-19T06:50:51;10.20;99.90
39347;DHT22;26262;49.836;6.632;2023-11-19T06:53:16;10.20;99.90
39347;DHT22;26262;49.836;6.632;2023-11-19T06:55:41;10.20;99.90
39347;DHT22;26262;49.836;6.632;2023-11-19T06:58:07;10.20;99.90
39347;DHT22;26262;49.836;6.632;2023-11-19T07:00:32;10.30;99.90
39347;DHT22;26262;49.836;6.632;2023-11-19T07:02:58;10.30;99.90
39347;DHT22;26262;49.836;6.632;2023-11-19T07:05:24;10.30;99.90
39347;DHT22;26262;49.836;6.632;2023-11-19T07:07:49;10.40;99.90
39347;DHT22;26262;49.836;6.632;2023-11-19T07:10:14;10.30;99.90
39347;DHT22;26262;49.836;6.632;2023-11-19T07:12:40;10.40;99.90
39347;DHT22;26262;49.836;6.632;2023-11-19T07:15:07;10.40;99.90
39347;DHT22;26262;49.836;6.632;2023-11-19T07:17:34;10.50;99.90
39347;DHT22;26262;49.836;6.632;2023-11-19T07:20:00;10.50;99.90
39347;DHT22;26262;49.836;6.632;2023-11-19T07:22:26;10.60;99.90
39347;DHT22;26262;49.836;6.632;2023-11-19T07:24:51;10.70;99.90
39347;DHT22;26262;49.836;6.632;2023-11-19T07:27:18;10.70;99.90
39347;DHT22;26262;49.836;6.632;2023-11-19T07:29:44;10.70;99.90
39347;DHT22;26262;49.836;6.632;2023-11-19T07:32:10;10.80;99.90
39347;DHT22;26262;49.836;6.632;2023-11-19T07:34:35;10.90;99.90
39347;DHT22;26262;49.836;6.632;2023-11-19T07:37:01;10.90;99.90
39347;DHT22;26262;49.836;6.632;2023-11-19T07:39:30;11.00;99.90
39347;DHT22;26262;49.836;6.632;2023-11-19T07:41:56;11.00;99.90
39347;DHT22;26262;49.836;6.632;2023-11-19T07:44:21;10.90;99.90
39347;DHT22;26262;49.836;6.632;2023-11-19T07:46:47;11.00;99.90
39347;DHT22;26262;49.836;6.632;2023-11-19T07:49:13;11.00;99.90
39347;DHT22;26262;49.836;6.632;2023-11-19T07:51:38;11.10;99.90
39347;DHT22;26262;49.836;6.632;2023-11-19T07:54:04;11.10;99.90
39347;DHT22;26262;49.836;6.632;2023-11-19T07:56:29;11.20;99.90
39347;DHT22;26262;49.836;6.632;2023-11-19T07:58:55;11.20;99.90
39347;DHT22;26262;49.836;6.632;2023-11-19T08:01:20;11.20;99.90
39347;DHT22;26262;49.836;6.632;2023-11-19T08:03:46;11.10;99.90
39347;DHT22;26262;49.836;6.632;2023-11-19T08:06:11;11.20;99.90
39347;DHT22;26262;49.836;6.632;2023-11-19T08:08:37;11.10;99.90
39347;DHT22;26262;49.836;6.632;2023-11-19T08:11:03;11.10;99.90
39347;DHT22;26262;49.836;6.632;2023-11-19T08:13:30;11.00;99.90
39347;DHT22;26262;49.836;6.632;2023-11-19T08:15:56;10.90;99.90
39347;DHT22;26262;49.836;6.632;2023-11-19T08:18:23;11.00;99.90
39347;DHT22;26262;49.836;6.632;2023-11-19T08:20:49;10.90;99.90
39347;DHT22;26262;49.836;6.632;2023-11-19T08:23:18;10.90;99.90
39347;DHT22;26262;49.836;6.632;2023-11-19T08:25:43;11.10;99.90
39347;DHT22;26262;49.836;6.632;2023-11-19T08:28:09;11.10;99.90
39347;DHT22;26262;49.836;6.632;2023-11-19T08:30:35;11.00;99.90
39347;DHT22;26262;49.836;6.632;2023-11-19T08:33:00;10.90;99.90
39347;DHT22;26262;49.836;6.632;2023-11-19T08:35:28;10.90;99.90
39347;DHT22;26262;49.836;6.632;2023-11-19T08:37:54;10.90;99.90
39347;DHT22;26262;49.836;6.632;2023-11-19T08:40:19;10.80;99.90
39347;DHT22;26262;49.836;6.632;2023-11-19T08:42:45;10.70;99.90
39347;DHT22;26262;49.836;6.632;2023-11-19T08:45:11;10.80;99.90
39347;DHT22;26262;49.836;6.632;2023-11-19T08:47:39;10.70;99.90
39347;DHT22;26262;49.836;6.632;2023-11-19T08:50:06;10.70;99.90
39347;DHT22;26262;49.836;6.632;2023-11-19T08:52:31;10.60;99.90
39347;DHT22;26262;49.836;6.632;2023-11-19T08:54:57;10.70;99.90
39347;DHT22;26262;49.836;6.632;2023-11-19T08:57:22;10.90;99.90
39347;DHT22;26262;49.836;6.632;2023-11-19T08:59:47;11.00;99.90
39347;DHT22;26262;49.836;6.632;2023-11-19T09:02:13;11.00;99.90
39347;DHT22;26262;49.836;6.632;2023-11-19T09:04:38;11.00;99.90
39347;DHT22;26262;49.836;6.632;2023-11-19T09:07:04;11.10;99.90
39347;DHT22;26262;49.836;6.632;2023-11-19T09:09:29;11.10;99.90
39347;DHT22;26262;49.836;6.632;2023-11-19T09:11:55;11.20;99.90
39347;DHT22;26262;49.836;6.632;2023-11-19T09:14:21;11.40;99.90
39347;DHT22;26262;49.836;6.632;2023-11-19T09:16:51;11.50;99.90
39347;DHT22;26262;49.836;6.632;2023-11-19T09:19:16;11.60;99.90
39347;DHT22;26262;49.836;6.632;2023-11-19T09:21:43;11.60;99.90
39347;DHT22;26262;49.836;6.632;2023-11-19T09:24:08;11.70;99.90
39347;DHT22;26262;49.836;6.632;2023-11-19T09:26:33;11.80;99.90
39347;DHT22;26262;49.836;6.632;2023-11-19T09:29:01;11.90;99.90
39347;DHT22;26262;49.836;6.632;2023-11-19T09:31:26;11.90;99.90
39347;DHT22;26262;49.836;6.632;2023-11-19T09:33:52;11.90;99.90
39347;DHT22;26262;49.836;6.632;2023-11-19T09:36:17;11.90;99.90
39347;DHT22;26262;49.836;6.632;2023-11-19T09:38:44;12.00;99.90
39347;DHT22;26262;49.836;6.632;2023-11-19T09:41:10;12.10;99.90
39347;DHT22;26262;49.836;6.632;2023-11-19T09:43:41;12.10;99.90
39347;DHT22;26262;49.836;6.632;2023-11-19T09:46:09;12.20;99.90
39347;DHT22;26262;49.836;6.632;2023-11-19T09:48:37;12.40;99.90
39347;DHT22;26262;49.836;6.632;2023-11-19T09:51:02;12.40;99.90
39347;DHT22;26262;49.836;6.632;2023-11-19T09:53:28;12.50;99.90
39347;DHT22;26262;49.836;6.632;2023-11-19T09:55:53;12.50;99.90
39347;DHT22;26262;49.836;6.632;2023-11-19T09:58:20;12.50;99.90
39347;DHT22;26262;49.836;6.632;2023-11-19T10:00:45;12.50;99.90
39347;DHT22;26262;49.836;6.632;2023-11-19T10:03:12;12.50;99.90
39347;DHT22;26262;49.836;6.632;2023-11-19T10:05:38;12.50;99.90
39347;DHT22;26262;49.836;6.632;2023-11-19T10:08:04;12.40;99.90
39347;DHT22;26262;49.836;6.632;2023-11-19T10:10:30;12.40;99.90
39347;DHT22;26262;49.836;6.632;2023-11-19T10:12:55;12.50;99.90
39347;DHT22;26262;49.836;6.632;2023-11-19T10:15:21;12.50;99.90
39347;DHT22;26262;49.836;6.632;2023-11-19T10:17:47;12.50;99.90
39347;DHT22;26262;49.836;6.632;2023-11-19T10:20:13;12.50;99.90
39347;DHT22;26262;49.836;6.632;2023-11-19T10:22:38;12.40;99.90
39347;DHT22;26262;49.836;6.632;2023-11-19T10:25:04;12.40;99.90
39347;DHT22;26262;49.836;6.632;2023-11-19T10:27:30;12.50;99.90
39347;DHT22;26262;49.836;6.632;2023-11-19T10:29:59;12.50;99.90
39347;DHT22;26262;49.836;6.632;2023-11-19T10:32:24;12.60;99.90
39347;DHT22;26262;49.836;6.632;2023-11-19T10:34:49;12.60;99.90
39347;DHT22;26262;49.836;6.632;2023-11-19T10:37:27;12.70;99.90
39347;DHT22;26262;49.836;6.632;2023-11-19T10:39:54;12.80;99.90
39347;DHT22;26262;49.836;6.632;2023-11-19T10:42:20;12.80;99.90
39347;DHT22;26262;49.836;6.632;2023-11-19T10:44:45;12.90;99.90
39347;DHT22;26262;49.836;6.632;2023-11-19T10:47:12;12.90;99.90
39347;DHT22;26262;49.836;6.632;2023-11-19T10:49:38;12.90;99.90
39347;DHT22;26262;49.836;6.632;2023-11-19T10:52:04;13.00;99.90
39347;DHT22;26262;49.836;6.632;2023-11-19T10:54:30;12.90;99.90
39347;DHT22;26262;49.836;6.632;2023-11-19T10:56:58;12.90;99.90
39347;DHT22;26262;49.836;6.632;2023-11-19T10:59:24;13.00;99.90
39347;DHT22;26262;49.836;6.632;2023-11-19T11:01:51;13.00;99.90
39347;DHT22;26262;49.836;6.632;2023-11-19T11:04:24;13.10;99.90
39347;DHT22;26262;49.836;6.632;2023-11-19T11:06:51;13.10;99.90
39347;DHT22;26262;49.836;6.632;2023-11-19T11:09:16;13.10;99.90
39347;DHT22;26262;49.836;6.632;2023-11-19T11:11:44;13.20;99.90
39347;DHT22;26262;49.836;6.632;2023-11-19T11:14:12;12.90;99.90
39347;DHT22;26262;49.836;6.632;2023-11-19T11:16:38;12.80;99.90
39347;DHT22;26262;49.836;6.632;2023-11-19T11:19:05;12.90;99.90
39347;DHT22;26262;49.836;6.632;2023-11-19T11:21:30;13.00;99.90
39347;DHT22;26262;49.836;6.632;2023-11-19T11:24:47;13.10;99.90
39347;DHT22;26262;49.836;6.632;2023-11-19T11:29:14;13.30;99.90
39347;DHT22;26262;49.836;6.632;2023-11-19T11:31:49;13.60;99.90
39347;DHT22;26262;49.836;6.632;2023-11-19T11:39:32;13.00;99.90
39347;DHT22;26262;49.836;6.632;2023-11-19T11:45:00;12.80;99.90
39347;DHT22;26262;49.836;6.632;2023-11-19T11:47:49;12.70;99.90
39347;DHT22;26262;49.836;6.632;2023-11-19T11:55:28;12.70;99.90
39347;DHT22;26262;49.836;6.632;2023-11-19T11:57:55;12.80;99.90
39347;DHT22;26262;49.836;6.632;2023-11-19T12:00:32;12.80;99.90
39347;DHT22;26262;49.836;6.632;2023-11-19T12:03:02;12.90;99.90
39347;DHT22;26262;49.836;6.632;2023-11-19T12:05:29;12.90;99.90
39347;DHT22;26262;49.836;6.632;2023-11-19T12:08:02;12.70;99.90
39347;DHT22;26262;49.836;6.632;2023-11-19T12:10:31;12.70;99.90
39347;DHT22;26262;49.836;6.632;2023-11-19T12:13:00;12.60;99.90
39347;DHT22;26262;49.836;6.632;2023-11-19T12:15:26;13.00;99.90
39347;DHT22;26262;49.836;6.632;2023-11-19T12:17:55;13.50;99.90
39347;DHT22;26262;49.836;6.632;2023-11-19T12:20:22;14.00;99.90
39347;DHT22;26262;49.836;6.632;2023-11-19T12:22:47;14.00;99.90
39347;DHT22;26262;49.836;6.632;2023-11-19T12:25:14;14.20;99.90
39347;DHT22;26262;49.836;6.632;2023-11-19T12:27:42;14.70;99.90
39347;DHT22;26262;49.836;6.632;2023-11-19T12:30:08;15.10;99.90
39347;DHT22;26262;49.836;6.632;2023-11-19T12:32:44;15.20;99.90
39347;DHT22;26262;49.836;6.632;2023-11-19T12:35:10;15.00;99.90
39347;DHT22;26262;49.836;6.632;2023-11-19T12:37:45;14.70;99.90
39347;DHT22;26262;49.836;6.632;2023-11-19T12:40:20;14.40;99.90
39347;DHT22;26262;49.836;6.632;2023-11-19T12:42:46;14.50;99.90
39347;DHT22;26262;49.836;6.632;2023-11-19T12:45:12;14.40;99.90
39347;DHT22;26262;49.836;6.632;2023-11-19T12:47:42;14.30;99.90
39347;DHT22;26262;49.836;6.632;2023-11-19T12:50:07;14.00;99.90
39347;DHT22;26262;49.836;6.632;2023-11-19T12:52:36;14.30;99.90
39347;DHT22;26262;49.836;6.632;2023-11-19T12:55:03;14.40;99.90
39347;DHT22;26262;49.836;6.632;2023-11-19T12:57:35;14.40;99.90
39347;DHT22;26262;49.836;6.632;2023-11-19T13:00:00;14.10;99.90
39347;DHT22;26262;49.836;6.632;2023-11-19T13:02:48;14.00;99.90
39347;DHT22;26262;49.836;6.632;2023-11-19T13:05:22;13.90;99.90
39347;DHT22;26262;49.836;6.632;2023-11-19T13:07:48;13.80;99.90
39347;DHT22;26262;49.836;6.632;2023-11-19T13:10:13;13.80;99.90
39347;DHT22;26262;49.836;6.632;2023-11-19T13:12:39;13.70;99.90
39347;DHT22;26262;49.836;6.632;2023-11-19T13:15:05;13.60;99.90
39347;DHT22;26262;49.836;6.632;2023-11-19T13:17:30;13.70;99.90
39347;DHT22;26262;49.836;6.632;2023-11-19T13:19:56;13.50;99.90
39347;DHT22;26262;49.836;6.632;2023-11-19T13:22:22;13.60;99.90
39347;DHT22;26262;49.836;6.632;2023-11-19T13:24:47;13.60;99.90
39347;DHT22;26262;49.836;6.632;2023-11-19T13:27:13;13.50;99.90
39347;DHT22;26262;49.836;6.632;2023-11-19T13:29:39;13.50;99.90
39347;DHT22;26262;49.836;6.632;2023-11-19T13:32:04;13.40;99.90
39347;DHT22;26262;49.836;6.632;2023-11-19T13:34:31;13.40;99.90
39347;DHT22;26262;49.836;6.632;2023-11-19T13:36:56;13.50;99.90
39347;DHT22;26262;49.836;6.632;2023-11-19T13:39:22;13.40;99.90
39347;DHT22;26262;49.836;6.632;2023-11-19T13:41:49;13.20;99.90
39347;DHT22;26262;49.836;6.632;2023-11-19T13:44:15;13.20;99.90
39347;DHT22;26262;49.836;6.632;2023-11-19T13:46:41;13.00;99.90
39347;DHT22;26262;49.836;6.632;2023-11-19T13:49:06;13.00;99.90
39347;DHT22;26262;49.836;6.632;2023-11-19T13:51:32;12.80;99.90
39347;DHT22;26262;49.836;6.632;2023-11-19T13:53:58;12.70;99.90
39347;DHT22;26262;49.836;6.632;2023-11-19T13:56:23;12.80;99.90
39347;DHT22;26262;49.836;6.632;2023-11-19T13:58:49;13.00;99.90
39347;DHT22;26262;49.836;6.632;2023-11-19T14:01:14;13.10;99.90
39347;DHT22;26262;49.836;6.632;2023-11-19T14:03:40;12.90;99.90
39347;DHT22;26262;49.836;6.632;2023-11-19T14:06:06;12.90;99.90
39347;DHT22;26262;49.836;6.632;2023-11-19T14:08:33;13.00;99.90
39347;DHT22;26262;49.836;6.632;2023-11-19T14:10:58;13.10;99.90
39347;DHT22;26262;49.836;6.632;2023-11-19T14:13:24;13.00;99.90
39347;DHT22;26262;49.836;6.632;2023-11-19T14:15:49;13.10;99.90
39347;DHT22;26262;49.836;6.632;2023-11-19T14:18:15;13.00;99.90
39347;DHT22;26262;49.836;6.632;2023-11-19T14:20:41;12.90;99.90
39347;DHT22;26262;49.836;6.632;2023-11-19T14:23:06;12.80;99.90
39347;DHT22;26262;49.836;6.632;2023-11-19T14:25:32;12.80;99.90
39347;DHT22;26262;49.836;6.632;2023-11-19T14:27:57;12.60;99.90
39347;DHT22;26262;49.836;6.632;2023-11-19T14:30:22;12.70;99.90
39347;DHT22;26262;49.836;6.632;2023-11-19T14:32:48;12.70;99.90
39347;DHT22;26262;49.836;6.632;2023-11-19T14:35:14;12.70;99.90
39347;DHT22;26262;49.836;6.632;2023-11-19T14:37:40;12.80;99.90
39347;DHT22;26262;49.836;6.632;2023-11-19T14:40:05;12.70;99.90
39347;DHT22;26262;49.836;6.632;2023-11-19T14:42:34;12.70;99.90
39347;DHT22;26262;49.836;6.632;2023-11-19T14:44:59;12.60;99.90
39347;DHT22;26262;49.836;6.632;2023-11-19T14:47:24;12.70;99.90
39347;DHT22;26262;49.836;6.632;2023-11-19T14:49:50;12.70;99.90
39347;DHT22;26262;49.836;6.632;2023-11-19T14:52:16;12.60;99.90
39347;DHT22;26262;49.836;6.632;2023-11-19T14:54:42;12.60;99.90
39347;DHT22;26262;49.836;6.632;2023-11-19T14:57:07;12.50;99.90
39347;DHT22;26262;49.836;6.632;2023-11-19T14:59:36;12.50;99.90
39347;DHT22;26262;49.836;6.632;2023-11-19T15:02:02;12.50;99.90
39347;DHT22;26262;49.836;6.632;2023-11-19T15:04:27;12.60;99.90
39347;DHT22;26262;49.836;6.632;2023-11-19T15:06:53;12.50;99.90
39347;DHT22;26262;49.836;6.632;2023-11-19T15:09:19;12.30;99.90
39347;DHT22;26262;49.836;6.632;2023-11-19T15:11:46;12.20;99.90
39347;DHT22;26262;49.836;6.632;2023-11-19T15:14:12;12.10;99.90
39347;DHT22;26262;49.836;6.632;2023-11-19T15:16:40;12.00;99.90
39347;DHT22;26262;49.836;6.632;2023-11-19T15:19:05;12.00;99.90
39347;DHT22;26262;49.836;6.632;2023-11-19T15:21:32;11.90;99.90
39347;DHT22;26262;49.836;6.632;2023-11-19T15:23:57;11.70;99.90
39347;DHT22;26262;49.836;6.632;2023-11-19T15:26:23;11.60;99.90
39347;DHT22;26262;49.836;6.632;2023-11-19T15:28:48;11.50;99.90
39347;DHT22;26262;49.836;6.632;2023-11-19T15:31:14;11.50;99.90
39347;DHT22;26262;49.836;6.632;2023-11-19T15:33:41;11.30;99.90
39347;DHT22;26262;49.836;6.632;2023-11-19T15:36:07;11.10;99.90
39347;DHT22;26262;49.836;6.632;2023-11-19T15:38:33;10.90;99.90
39347;DHT22;26262;49.836;6.632;2023-11-19T15:40:59;10.80;99.90
39347;DHT22;26262;49.836;6.632;2023-11-19T15:43:24;10.80;99.90